Time;durP1;ratioP1;P1;durP2;ratioP2;P2;SDS_P1;SDS_P2;PMS_P1;PMS_P2;Temp;Humidity;BMP_temperature;BMP_pressure;BME280_temperature;BME280_humidity;BME280_pressure;Samples;Min_cycle;Max_cycle;Signal;HPM_P1;HPM_P2
2023/01/30 00:00:17;;;;;;;19.10;16.93;;;;;20.20;100720.00;;;;2086447;28;20241;-53
2023/01/30 00:01:19;;;;;;;19.10;17.07;;;;;20.20;100706.00;;;;2086473;28;20213;-53
2023/01/30 00:02:19;;;;;;;20.05;16.83;;;;;20.20;100704.00;;;;2086489;28;20300;-53
2023/01/30 00:03:19;;;;;;;18.67;16.67;;;;;20.20;100717.00;;;;2086180;28;20220;-53
2023/01/30 00:04:19;;;;;;;19.97;17.80;;;;;20.20;100717.00;;;;2086366;28;20229;-53
2023/01/30 00:05:20;;;;;;;18.60;16.70;;;;;20.20;100734.00;;;;2086225;28;20224;-53
2023/01/30 00:06:20;;;;;;;18.20;16.30;;;;;20.10;100736.00;;;;2086227;28;20295;-52
2023/01/30 00:07:20;;;;;;;18.77;16.60;;;;;20.20;100734.00;;;;2086441;28;20224;-53
2023/01/30 00:08:21;;;;;;;18.50;16.60;;;;;20.10;100750.00;;;;2085295;28;20213;-53
2023/01/30 00:09:21;;;;;;;17.80;15.90;;;;;20.10;100740.00;;;;2086527;28;20209;-53
2023/01/30 00:10:21;;;;;;;17.60;15.80;;;;;20.10;100732.00;;;;2086929;28;20646;-53
2023/01/30 00:11:22;;;;;;;18.13;15.63;;;;;20.10;100745.00;;;;2087855;28;20213;-53
2023/01/30 00:12:23;;;;;;;17.53;15.63;;;;;20.10;100734.00;;;;2087804;28;20236;-52
2023/01/30 00:13:23;;;;;;;17.23;15.38;;;;;20.10;100727.00;;;;2087132;28;20259;-52
2023/01/30 00:14:23;;;;;;;17.83;15.93;;;;;20.10;100724.00;;;;2086609;28;20205;-52
2023/01/30 00:15:24;;;;;;;17.80;15.90;;;;;20.10;100718.00;;;;2087839;28;20208;-53
2023/01/30 00:16:24;;;;;;;17.93;15.20;;;;;20.10;100726.00;;;;2087021;28;20234;-53
2023/01/30 00:17:24;;;;;;;17.60;15.80;;;;;20.10;100720.00;;;;2087793;28;20217;-52
2023/01/30 00:18:25;;;;;;;17.23;14.97;;;;;20.00;100711.00;;;;2086767;28;20209;-53
2023/01/30 00:19:25;;;;;;;17.10;14.73;;;;;20.10;100713.00;;;;2087710;28;20215;-53
2023/01/30 00:20:25;;;;;;;16.90;15.10;;;;;20.10;100719.00;;;;2087682;28;20209;-53
2023/01/30 00:21:26;;;;;;;16.43;14.73;;;;;20.00;100723.00;;;;2087566;28;20213;-52
2023/01/30 00:22:26;;;;;;;17.40;15.60;;;;;20.00;100721.00;;;;2087410;28;20201;-53
2023/01/30 00:23:27;;;;;;;16.87;14.70;;;;;20.00;100722.00;;;;2087393;28;20744;-52
2023/01/30 00:24:27;;;;;;;17.07;15.17;;;;;20.00;100717.00;;;;2087449;28;20217;-52
2023/01/30 00:25:27;;;;;;;15.77;14.17;;;;;20.00;100710.00;;;;2087621;28;20292;-52
2023/01/30 00:26:28;;;;;;;15.87;14.27;;;;;20.00;100713.00;;;;2087487;28;20224;-53
2023/01/30 00:27:28;;;;;;;17.73;15.83;;;;;20.00;100705.00;;;;2087029;28;20216;-52
2023/01/30 00:28:29;;;;;;;16.27;14.57;;;;;20.00;100711.00;;;;2086285;28;20696;-52
2023/01/30 00:29:29;;;;;;;15.57;13.77;;;;;20.00;100705.00;;;;2087422;28;20221;-53
2023/01/30 00:30:29;;;;;;;16.30;14.67;;;;;19.90;100692.00;;;;2087648;28;20240;-53
2023/01/30 00:31:30;;;;;;;15.17;13.67;;;;;20.00;100694.00;;;;2087595;28;20216;-52
2023/01/30 00:32:30;;;;;;;15.30;13.77;;;;;20.00;100699.00;;;;2087192;28;20213;-52
2023/01/30 00:33:31;;;;;;;14.23;12.83;;;;;19.90;100689.00;;;;2087226;28;20218;-53
2023/01/30 00:34:31;;;;;;;14.93;13.40;;;;;20.00;100682.00;;;;2087591;28;20221;-52
2023/01/30 00:35:32;;;;;;;16.83;15.03;;;;;20.00;100675.00;;;;2087487;28;20224;-53
2023/01/30 00:36:32;;;;;;;15.73;14.13;;;;;20.00;100671.00;;;;2087368;28;20209;-52
2023/01/30 00:37:33;;;;;;;15.27;13.67;;;;;19.90;100672.00;;;;2086653;28;20209;-53
2023/01/30 00:38:33;;;;;;;15.90;14.20;;;;;20.00;100678.00;;;;2086339;28;20209;-52
2023/01/30 00:39:33;;;;;;;14.70;13.23;;;;;19.90;100678.00;;;;2087462;28;20216;-53
2023/01/30 00:40:34;;;;;;;13.30;12.00;;;;;19.90;100675.00;;;;2086855;28;20216;-53
2023/01/30 00:47:05;;;;;;;13.05;11.75;;;;;19.90;100656.00;;;;2080270;28;20221;-53
2023/01/30 00:48:05;;;;;;;14.95;13.45;;;;;19.80;100651.00;;;;2077894;28;20213;-52
2023/01/30 00:49:06;;;;;;;14.00;12.50;;;;;19.80;100644.00;;;;2078959;28;20266;-52
2023/01/30 00:50:06;;;;;;;14.63;13.10;;;;;19.80;100645.00;;;;2079007;28;20221;-53
2023/01/30 00:51:07;;;;;;;13.17;11.87;;;;;19.90;100661.00;;;;2078812;28;20220;-56
2023/01/30 00:52:07;;;;;;;13.33;11.93;;;;;19.90;100658.00;;;;2083256;28;20216;-56
2023/01/30 00:53:11;;;;;;;13.63;12.23;;;;;19.90;100653.00;;;;2079180;28;20217;-55
2023/01/30 00:54:11;;;;;;;14.18;12.60;;;;;19.80;100656.00;;;;2079003;28;20319;-52
2023/01/30 00:55:12;;;;;;;13.80;12.50;;;;;19.90;100643.00;;;;2078846;28;20883;-53
2023/01/30 00:56:12;;;;;;;14.97;13.37;;;;;19.90;100641.00;;;;2079076;28;20651;-53
2023/01/30 00:57:12;;;;;;;12.80;11.50;;;;;19.90;100655.00;;;;2078969;28;20205;-53
2023/01/30 00:58:13;;;;;;;13.00;11.70;;;;;19.80;100651.00;;;;2078317;28;20217;-53
2023/01/30 00:59:13;;;;;;;13.67;12.27;;;;;19.80;100632.00;;;;2079041;28;20233;-52
2023/01/30 01:00:16;;;;;;;13.17;11.87;;;;;19.80;100641.00;;;;2078993;28;20237;-52
2023/01/30 01:01:16;;;;;;;13.30;11.90;;;;;19.80;100638.00;;;;2078801;28;20213;-53
2023/01/30 01:02:16;;;;;;;13.67;12.27;;;;;19.80;100641.00;;;;2078862;28;20213;-54
2023/01/30 01:03:17;;;;;;;13.40;12.00;;;;;19.80;100640.00;;;;2079032;28;20289;-53
2023/01/30 01:04:17;;;;;;;13.97;11.93;;;;;19.80;100637.00;;;;2094677;28;20215;-53
2023/01/30 01:05:17;;;;;;;13.73;12.33;;;;;19.80;100641.00;;;;2093027;28;20216;-53
2023/01/30 01:06:18;;;;;;;12.80;11.50;;;;;19.80;100637.00;;;;2078191;28;20214;-53
2023/01/30 01:07:18;;;;;;;13.37;11.40;;;;;19.80;100636.00;;;;2078108;28;20275;-52
2023/01/30 01:08:19;;;;;;;13.03;11.73;;;;;19.80;100643.00;;;;2078097;28;20305;-52
2023/01/30 01:09:19;;;;;;;13.57;12.13;;;;;19.80;100631.00;;;;2077838;28;20211;-53
2023/01/30 01:10:19;;;;;;;14.40;12.90;;;;;19.70;100621.00;;;;2078646;28;20689;-53
2023/01/30 01:11:23;;;;;;;12.40;11.17;;;;;19.70;100626.00;;;;2078866;28;20214;-53
2023/01/30 01:12:23;;;;;;;12.27;11.07;;;;;19.80;100622.00;;;;2079075;28;20291;-53
2023/01/30 01:13:23;;;;;;;13.37;11.97;;;;;19.80;100615.00;;;;2078995;28;20698;-53
2023/01/30 01:14:24;;;;;;;13.63;12.23;;;;;19.80;100615.00;;;;2078868;28;20228;-52
2023/01/30 01:15:24;;;;;;;12.93;11.63;;;;;19.80;100612.00;;;;2079042;28;20271;-52
2023/01/30 01:16:26;;;;;;;12.27;11.07;;;;;19.80;100618.00;;;;2078727;28;20237;-52
2023/01/30 01:17:26;;;;;;;12.43;11.13;;;;;19.80;100619.00;;;;2078512;28;20464;-53
2023/01/30 01:18:26;;;;;;;13.20;11.90;;;;;19.70;100618.00;;;;2077845;28;20308;-52
2023/01/30 01:19:27;;;;;;;13.67;11.70;;;;;19.70;100609.00;;;;2078557;28;20209;-54
2023/01/30 01:20:27;;;;;;;12.80;11.50;;;;;19.80;100614.00;;;;2078660;28;20221;-52
2023/01/30 01:21:27;;;;;;;13.00;11.47;;;;;19.70;100604.00;;;;2077905;28;20713;-52
2023/01/30 01:22:28;;;;;;;12.57;11.17;;;;;19.80;100600.00;;;;2078814;28;20287;-53
2023/01/30 01:23:28;;;;;;;12.50;11.30;;;;;19.70;100612.00;;;;2078948;28;20237;-53
2023/01/30 01:24:28;;;;;;;13.27;11.73;;;;;19.70;100620.00;;;;2078777;28;20716;-53
2023/01/30 01:25:29;;;;;;;12.10;10.50;;;;;19.70;100620.00;;;;2078654;28;20288;-53
2023/01/30 01:26:29;;;;;;;12.50;11.20;;;;;19.70;100618.00;;;;2077833;28;20221;-52
2023/01/30 01:27:29;;;;;;;12.30;11.00;;;;;19.70;100623.00;;;;2078314;28;20217;-58
2023/01/30 01:28:30;;;;;;;12.20;11.00;;;;;19.70;100619.00;;;;2077686;28;20225;-53
2023/01/30 01:29:30;;;;;;;12.30;11.10;;;;;19.70;100638.00;;;;2078857;28;20252;-53
2023/01/30 01:30:30;;;;;;;11.77;10.50;;;;;19.70;100622.00;;;;2078751;28;20220;-53
2023/01/30 01:31:31;;;;;;;12.33;10.97;;;;;19.70;100625.00;;;;2077863;28;20217;-52
2023/01/30 01:32:31;;;;;;;12.30;11.10;;;;;19.70;100621.00;;;;2078523;28;20296;-53
2023/01/30 01:33:31;;;;;;;12.40;10.73;;;;;19.70;100621.00;;;;2078804;28;20209;-53
2023/01/30 01:34:32;;;;;;;11.63;10.43;;;;;19.70;100614.00;;;;2078519;28;20209;-52
2023/01/30 01:35:32;;;;;;;12.07;10.97;;;;;19.70;100610.00;;;;2078670;28;20260;-52
2023/01/30 01:36:33;;;;;;;11.80;10.60;;;;;19.60;100606.00;;;;2078909;28;21966;-53
2023/01/30 01:37:33;;;;;;;12.83;11.53;;;;;19.60;100615.00;;;;2078597;28;20232;-53
2023/01/30 01:38:34;;;;;;;11.67;10.40;;;;;19.60;100603.00;;;;2077714;28;20534;-52
2023/01/30 01:41:01;;;;;;;11.30;10.20;;;;;19.70;100601.00;;;;2078676;28;20217;-53
2023/01/30 01:42:02;;;;;;;11.80;10.60;;;;;19.70;100614.00;;;;2078495;28;20697;-52
2023/01/30 01:43:28;;;;;;;13.93;10.40;;;;;19.60;100617.00;;;;2078430;28;20221;-52
2023/01/30 01:44:29;;;;;;;11.02;9.98;;;;;19.60;100605.00;;;;2077244;28;20236;-53
2023/01/30 01:45:29;;;;;;;11.60;10.50;;;;;19.60;100608.00;;;;2072575;28;20213;-52
2023/01/30 01:46:34;;;;;;;11.70;10.60;;;;;19.60;100620.00;;;;2078088;28;20463;-53
2023/01/30 01:47:34;;;;;;;11.15;10.02;;;;;19.60;100605.00;;;;2078007;28;20209;-52
2023/01/30 01:48:40;;;;;;;12.30;11.10;;;;;19.60;100596.00;;;;2077026;28;20264;-53
2023/01/30 01:49:40;;;;;;;10.35;9.35;;;;;19.50;100592.00;;;;2077767;28;20221;-52
2023/01/30 01:50:47;;;;;;;11.67;10.47;;;;;19.50;100583.00;;;;2077608;28;20224;-52
2023/01/30 01:52:02;;;;;;;11.52;10.43;;;;;19.60;100596.00;;;;2076524;28;20213;-53
2023/01/30 01:53:02;;;;;;;11.63;10.52;;;;;19.60;100592.00;;;;2071990;28;20216;-51
2023/01/30 01:54:11;;;;;;;12.93;10.47;;;;;19.60;100595.00;;;;2069667;28;20207;-52
2023/01/30 01:55:12;;;;;;;11.35;10.35;;;;;19.60;100594.00;;;;2077995;28;20260;-53
2023/01/30 01:56:13;;;;;;;10.90;9.90;;;;;19.60;100596.00;;;;2069542;28;20218;-53
2023/01/30 01:57:17;;;;;;;11.80;10.60;;;;;19.60;100583.00;;;;2069728;28;21003;-52
2023/01/30 01:58:21;;;;;;;11.85;10.65;;;;;19.60;100580.00;;;;2068944;28;20217;-53
2023/01/30 01:59:29;;;;;;;11.50;10.38;;;;;19.60;100592.00;;;;2078009;28;20751;-53
2023/01/30 02:00:29;;;;;;;12.07;10.77;;;;;19.60;100589.00;;;;2078104;28;20213;-53
2023/01/30 02:01:29;;;;;;;10.73;9.73;;;;;19.50;100600.00;;;;2078390;28;20240;-53
2023/01/30 02:02:30;;;;;;;11.47;10.37;;;;;19.50;100591.00;;;;2077752;28;20702;-53
2023/01/30 02:03:32;;;;;;;11.07;9.97;;;;;19.50;100579.00;;;;2076065;28;20574;-52
2023/01/30 02:05:53;;;;;;;11.50;10.32;;;;;19.50;100592.00;;;;2071569;28;20617;-52
2023/01/30 02:06:54;;;;;;;12.80;11.27;;;;;19.50;100575.00;;;;2066432;28;20220;-53
2023/01/30 02:08:11;;;;;;;10.00;9.10;;;;;19.50;100580.00;;;;2069395;28;20579;-52
2023/01/30 02:09:11;;;;;;;12.52;9.70;;;;;19.50;100576.00;;;;2078620;28;20570;-52
2023/01/30 02:10:19;;;;;;;12.47;9.83;;;;;19.50;100569.00;;;;2077635;28;20222;-53
2023/01/30 02:11:29;;;;;;;10.23;9.23;;;;;19.50;100559.00;;;;2075696;28;20221;-55
2023/01/30 02:12:29;;;;;;;10.43;9.43;;;;;19.50;100556.00;;;;2070337;28;20229;-53
2023/01/30 02:13:30;;;;;;;11.30;10.20;;;;;19.50;100561.00;;;;2069068;28;20218;-53
2023/01/30 02:14:31;;;;;;;10.50;9.50;;;;;19.50;100556.00;;;;2069174;28;20213;-53
2023/01/30 02:15:32;;;;;;;10.30;9.30;;;;;19.50;100561.00;;;;2069121;28;20867;-53
2023/01/30 02:16:32;;;;;;;10.70;9.70;;;;;19.50;100550.00;;;;2068969;28;20214;-52
2023/01/30 02:17:32;;;;;;;10.60;9.60;;;;;19.50;100541.00;;;;2077058;28;20221;-53
2023/01/30 02:18:33;;;;;;;10.80;9.80;;;;;19.50;100550.00;;;;2076656;28;20303;-52
2023/01/30 02:20:17;;;;;;;11.35;10.25;;;;;19.50;100548.00;;;;2068698;28;20293;-51
2023/01/30 02:21:35;;;;;;;9.80;8.90;;;;;19.50;100551.00;;;;2074004;28;20232;-53
2023/01/30 02:22:54;;;;;;;11.70;10.50;;;;;19.50;100543.00;;;;2077426;28;20279;-52
2023/01/30 02:24:18;;;;;;;10.23;9.27;;;;;19.50;100539.00;;;;2077326;28;20217;-53
2023/01/30 02:25:40;;;;;;;10.60;9.60;;;;;19.50;100537.00;;;;2077724;28;20220;-52
2023/01/30 02:26:45;;;;;;;11.00;9.90;;;;;19.50;100520.00;;;;2085181;28;20219;-53
2023/01/30 02:27:52;;;;;;;10.18;9.07;;;;;19.50;100520.00;;;;2077013;28;20225;-52
2023/01/30 02:29:14;;;;;;;10.77;9.77;;;;;19.50;100523.00;;;;2069247;28;20240;-54
2023/01/30 02:30:42;;;;;;;11.75;10.55;;;;;19.40;100527.00;;;;2077329;28;20209;-53
2023/01/30 02:31:49;;;;;;;11.10;9.65;;;;;19.50;100528.00;;;;2078440;28;20681;-52
2023/01/30 02:33:11;;;;;;;10.20;9.18;;;;;19.50;100526.00;;;;2076855;28;20213;-53
2023/01/30 02:34:26;;;;;;;10.88;9.80;;;;;19.50;100514.00;;;;2076966;28;20209;-52
2023/01/30 02:35:30;;;;;;;9.68;8.75;;;;;19.50;100505.00;;;;2077563;28;20205;-53
2023/01/30 02:36:57;;;;;;;10.55;9.52;;;;;19.50;100505.00;;;;2077917;28;20259;-53
2023/01/30 02:38:25;;;;;;;10.73;8.80;;;;;19.40;100507.00;;;;2076691;28;20209;-53
2023/01/30 02:39:54;;;;;;;11.10;10.00;;;;;19.40;100491.00;;;;2076827;28;20696;-53
2023/01/30 02:41:27;;;;;;;9.65;8.75;;;;;19.40;100488.00;;;;2084348;28;20640;-53
2023/01/30 02:42:37;;;;;;;10.73;9.73;;;;;19.40;100492.00;;;;2082837;28;20673;-53
2023/01/30 02:43:41;;;;;;;11.77;10.57;;;;;19.40;100492.00;;;;2084486;28;20216;-52
2023/01/30 02:44:48;;;;;;;9.07;8.27;;;;;19.40;100496.00;;;;2084417;28;20319;-52
2023/01/30 02:45:55;;;;;;;10.55;9.45;;;;;19.40;100490.00;;;;2085738;28;20213;-53
2023/01/30 02:47:10;;;;;;;9.77;8.88;;;;;19.40;100491.00;;;;2076545;28;20213;-53
2023/01/30 02:48:13;;;;;;;10.43;9.38;;;;;19.40;100488.00;;;;2078230;28;20808;-53
2023/01/30 02:49:25;;;;;;;9.05;8.20;;;;;19.40;100484.00;;;;2076815;28;20213;-52
2023/01/30 02:50:28;;;;;;;11.32;10.15;;;;;19.40;100492.00;;;;2078156;28;20633;-53
2023/01/30 02:51:29;;;;;;;10.60;9.50;;;;;19.40;100482.00;;;;2077353;28;20267;-52
2023/01/30 02:52:29;;;;;;;10.05;9.05;;;;;19.40;100487.00;;;;2076872;28;20225;-53
2023/01/30 02:53:32;;;;;;;10.13;9.23;;;;;19.40;100484.00;;;;2077029;28;20210;-53
2023/01/30 02:54:33;;;;;;;11.40;10.30;;;;;19.40;100487.00;;;;2069213;28;20205;-53
2023/01/30 02:55:34;;;;;;;10.20;9.20;;;;;19.40;100488.00;;;;2076597;28;20214;-53
2023/01/30 02:56:45;;;;;;;9.68;8.77;;;;;19.40;100492.00;;;;2085664;28;20225;-53
2023/01/30 02:57:46;;;;;;;9.05;8.15;;;;;19.40;100481.00;;;;2085281;28;20742;-53
2023/01/30 02:58:53;;;;;;;10.40;9.40;;;;;19.40;100480.00;;;;2084997;28;20217;-53
2023/01/30 02:59:58;;;;;;;10.18;8.98;;;;;19.40;100488.00;;;;2076469;28;20225;-53
2023/01/30 03:01:10;;;;;;;10.60;9.52;;;;;19.40;100483.00;;;;2069424;28;21273;-53
2023/01/30 03:02:13;;;;;;;10.48;9.48;;;;;19.40;100480.00;;;;2078612;28;20224;-53
2023/01/30 03:03:31;;;;;;;10.75;9.65;;;;;19.30;100484.00;;;;2085017;28;20670;-53
2023/01/30 03:05:10;;;;;;;10.10;9.10;;;;;19.40;100500.00;;;;2078584;28;20279;-52
2023/01/30 03:06:23;;;;;;;11.65;9.70;;;;;19.30;100462.00;;;;2063473;28;20702;-53
2023/01/30 03:07:33;;;;;;;9.68;8.77;;;;;19.30;100472.00;;;;2060063;28;20817;-52
2023/01/30 03:09:10;;;;;;;10.75;9.75;;;;;19.30;100481.00;;;;2060816;28;20586;-52
2023/01/30 03:10:37;;;;;;;11.70;9.82;;;;;19.30;100480.00;;;;2068435;28;20229;-53
2023/01/30 03:11:50;;;;;;;10.20;8.75;;;;;19.30;100485.00;;;;2061967;28;20218;-53
2023/01/30 03:13:18;;;;;;;10.98;9.10;;;;;19.30;100488.00;;;;2079191;28;20221;-53
2023/01/30 03:14:25;;;;;;;9.75;8.85;;;;;19.30;100490.00;;;;2077291;28;20237;-53
2023/01/30 03:15:36;;;;;;;12.30;9.27;;;;;19.30;100485.00;;;;2077304;28;20221;-53
2023/01/30 03:16:37;;;;;;;9.65;8.52;;;;;19.30;100470.00;;;;2086006;28;20241;-52
2023/01/30 03:17:39;;;;;;;10.90;8.98;;;;;19.30;100462.00;;;;2085401;28;20220;-53
2023/01/30 03:18:42;;;;;;;9.77;8.77;;;;;19.30;100467.00;;;;2076483;28;20214;-53
2023/01/30 03:19:43;;;;;;;10.38;9.18;;;;;19.30;100453.00;;;;2077433;28;20224;-52
2023/01/30 03:20:43;;;;;;;10.23;9.23;;;;;19.30;100463.00;;;;2085782;28;20209;-53
2023/01/30 03:21:44;;;;;;;9.57;8.57;;;;;19.30;100463.00;;;;2085363;28;20243;-53
2023/01/30 03:22:44;;;;;;;9.37;8.50;;;;;19.30;100464.00;;;;2086386;28;20242;-53
2023/01/30 03:23:45;;;;;;;8.80;7.90;;;;;19.30;100468.00;;;;2086412;28;20267;-52
2023/01/30 03:24:46;;;;;;;9.75;8.75;;;;;19.30;100457.00;;;;2085381;28;20217;-52
2023/01/30 03:25:46;;;;;;;9.60;8.70;;;;;19.20;100452.00;;;;2076027;28;20224;-53
2023/01/30 03:27:01;;;;;;;8.93;8.03;;;;;19.30;100454.00;;;;2076433;28;20222;-52
2023/01/30 03:28:02;;;;;;;11.23;8.77;;;;;19.30;100454.00;;;;2075724;28;20286;-53
2023/01/30 03:29:02;;;;;;;9.43;8.53;;;;;19.30;100444.00;;;;2069066;28;20218;-53
2023/01/30 03:30:03;;;;;;;9.90;8.87;;;;;19.30;100449.00;;;;2085704;28;20451;-52
2023/01/30 03:31:03;;;;;;;9.60;8.70;;;;;19.30;100448.00;;;;2083806;28;20216;-54
2023/01/30 03:32:04;;;;;;;9.40;8.50;;;;;19.30;100450.00;;;;2086259;28;20735;-52
2023/01/30 03:33:04;;;;;;;9.07;8.27;;;;;19.20;100452.00;;;;2086303;28;20229;-52
2023/01/30 03:34:04;;;;;;;10.40;9.40;;;;;19.20;100446.00;;;;2085154;28;20389;-54
2023/01/30 03:35:05;;;;;;;9.77;8.87;;;;;19.20;100449.00;;;;2085735;28;20641;-52
2023/01/30 03:36:05;;;;;;;9.63;8.73;;;;;19.20;100431.00;;;;2084790;28;20220;-52
2023/01/30 03:37:06;;;;;;;10.03;9.00;;;;;19.30;100452.00;;;;2077419;28;20306;-53
2023/01/30 03:38:06;;;;;;;9.93;8.20;;;;;19.30;100439.00;;;;2076349;28;20586;-53
2023/01/30 03:39:07;;;;;;;9.90;8.90;;;;;19.20;100435.00;;;;2082246;28;20236;-56
2023/01/30 03:40:08;;;;;;;11.10;10.00;;;;;19.20;100429.00;;;;2086311;28;20221;-53
2023/01/30 03:41:09;;;;;;;9.90;9.00;;;;;19.30;100419.00;;;;2086244;28;20217;-53
2023/01/30 03:42:09;;;;;;;9.70;8.80;;;;;19.30;100433.00;;;;2086402;28;20208;-54
2023/01/30 03:43:09;;;;;;;10.30;8.90;;;;;19.20;100427.00;;;;2085459;28;20221;-53
2023/01/30 03:44:10;;;;;;;11.03;8.97;;;;;19.20;100412.00;;;;2084940;28;20201;-53
2023/01/30 03:45:10;;;;;;;10.70;9.70;;;;;19.30;100427.00;;;;2087664;28;20282;-53
2023/01/30 03:46:11;;;;;;;10.43;9.43;;;;;19.20;100421.00;;;;2087487;28;20197;-53
2023/01/30 03:47:11;;;;;;;9.43;8.40;;;;;19.20;100422.00;;;;2087972;28;20278;-53
2023/01/30 03:48:11;;;;;;;9.40;8.50;;;;;19.20;100420.00;;;;2086748;28;20459;-53
2023/01/30 03:49:12;;;;;;;11.43;10.23;;;;;19.20;100423.00;;;;2087604;28;20579;-53
2023/01/30 03:50:12;;;;;;;10.97;9.37;;;;;19.20;100426.00;;;;2087864;28;20546;-53
2023/01/30 03:51:12;;;;;;;10.57;9.57;;;;;19.20;100435.00;;;;2087972;28;20255;-53
2023/01/30 03:52:13;;;;;;;10.40;9.40;;;;;19.20;100430.00;;;;2087996;28;20266;-53
2023/01/30 03:53:13;;;;;;;9.10;8.30;;;;;19.20;100421.00;;;;2087991;28;20209;-53
2023/01/30 03:54:13;;;;;;;9.33;8.43;;;;;19.20;100427.00;;;;2087483;28;20209;-53
2023/01/30 03:55:14;;;;;;;10.00;9.00;;;;;19.20;100432.00;;;;2087664;28;20877;-54
2023/01/30 03:56:14;;;;;;;9.17;8.30;;;;;19.20;100416.00;;;;2088028;28;20240;-52
2023/01/30 03:57:14;;;;;;;9.80;8.80;;;;;19.20;100408.00;;;;2086887;28;20216;-53
2023/01/30 03:58:15;;;;;;;10.27;9.27;;;;;19.20;100402.00;;;;2086857;28;20205;-54
2023/01/30 03:59:15;;;;;;;9.93;8.93;;;;;19.10;100399.00;;;;2087751;28;20292;-54
2023/01/30 04:00:16;;;;;;;10.10;9.10;;;;;19.20;100392.00;;;;2087491;28;20220;-53
2023/01/30 04:01:16;;;;;;;9.53;8.63;;;;;19.20;100382.00;;;;2087737;28;20225;-53
2023/01/30 04:02:21;;;;;;;11.50;9.20;;;;;19.20;100391.00;;;;2088114;28;20299;-52
2023/01/30 04:03:22;;;;;;;9.40;8.50;;;;;19.10;100387.00;;;;2087922;28;20244;-54
2023/01/30 04:04:23;;;;;;;10.18;8.68;;;;;19.20;100407.00;;;;2087617;28;20323;-53
2023/01/30 04:05:23;;;;;;;10.63;9.63;;;;;19.20;100408.00;;;;2087326;28;20681;-54
2023/01/30 04:06:23;;;;;;;10.50;9.40;;;;;19.20;100406.00;;;;2087966;28;20690;-53
2023/01/30 04:07:24;;;;;;;9.20;8.30;;;;;19.20;100411.00;;;;2087437;28;20220;-53
2023/01/30 04:08:24;;;;;;;10.10;9.20;;;;;19.20;100408.00;;;;2086474;28;20236;-53
2023/01/30 04:09:24;;;;;;;9.33;8.43;;;;;19.10;100411.00;;;;2087899;28;20275;-53
2023/01/30 04:10:25;;;;;;;10.20;9.23;;;;;19.20;100406.00;;;;2087552;28;20209;-53
2023/01/30 04:11:25;;;;;;;10.13;8.53;;;;;19.20;100399.00;;;;2087644;28;20213;-55
2023/01/30 04:12:26;;;;;;;10.23;9.23;;;;;19.20;100396.00;;;;2087672;28;20223;-53
2023/01/30 04:13:26;;;;;;;9.97;8.90;;;;;19.10;100401.00;;;;2088028;28;25484;-52
2023/01/30 04:14:26;;;;;;;8.83;8.03;;;;;19.20;100404.00;;;;2087495;28;20410;-53
2023/01/30 04:15:27;;;;;;;10.10;9.10;;;;;19.10;100406.00;;;;2081676;28;20267;-53
2023/01/30 04:16:27;;;;;;;8.87;8.00;;;;;19.10;100402.00;;;;2079311;28;20230;-53
2023/01/30 04:17:27;;;;;;;9.93;8.93;;;;;19.20;100408.00;;;;2079295;28;20221;-53
2023/01/30 04:18:28;;;;;;;9.83;8.93;;;;;19.20;100408.00;;;;2078575;28;20255;-53
2023/01/30 04:19:28;;;;;;;8.97;8.03;;;;;19.20;100406.00;;;;2079139;28;20267;-53
2023/01/30 04:20:28;;;;;;;9.03;8.13;;;;;19.10;100408.00;;;;2079385;28;20243;-53
2023/01/30 04:21:29;;;;;;;9.33;8.33;;;;;19.20;100406.00;;;;2079545;28;20245;-53
2023/01/30 04:22:29;;;;;;;9.87;8.87;;;;;19.10;100409.00;;;;2079478;28;20217;-53
2023/01/30 04:23:29;;;;;;;9.17;8.33;;;;;19.10;100386.00;;;;2079558;28;20220;-56
2023/01/30 04:24:30;;;;;;;9.37;8.47;;;;;19.10;100391.00;;;;2079173;28;20312;-54
2023/01/30 04:25:30;;;;;;;9.70;8.80;;;;;19.10;100407.00;;;;2079073;28;20210;-53
2023/01/30 04:26:30;;;;;;;9.27;8.37;;;;;19.10;100396.00;;;;2079606;28;20678;-53
2023/01/30 04:27:31;;;;;;;9.87;8.87;;;;;19.10;100401.00;;;;2079079;28;20679;-54
2023/01/30 04:28:31;;;;;;;9.37;8.50;;;;;19.10;100391.00;;;;2078519;28;20217;-54
2023/01/30 04:29:32;;;;;;;9.00;8.10;;;;;19.10;100395.00;;;;2079327;28;20209;-54
2023/01/30 04:30:32;;;;;;;9.67;8.63;;;;;19.10;100389.00;;;;2078151;28;20221;-54
2023/01/30 04:31:32;;;;;;;10.40;9.30;;;;;19.10;100402.00;;;;2079473;28;20300;-53
2023/01/30 04:32:33;;;;;;;9.27;8.37;;;;;19.10;100396.00;;;;2079293;28;20213;-53
2023/01/30 04:33:34;;;;;;;8.73;7.83;;;;;19.10;100382.00;;;;2079231;28;20580;-53
2023/01/30 04:34:34;;;;;;;8.98;8.05;;;;;19.10;100385.00;;;;2079352;28;20210;-53
2023/01/30 04:35:34;;;;;;;9.93;8.93;;;;;19.00;100388.00;;;;2079340;28;20217;-53
2023/01/30 04:36:35;;;;;;;10.23;9.23;;;;;19.10;100387.00;;;;2079562;28;20296;-53
2023/01/30 04:37:36;;;;;;;9.20;8.30;;;;;19.10;100390.00;;;;2079404;28;20213;-53
2023/01/30 04:38:36;;;;;;;9.10;8.20;;;;;19.10;100365.00;;;;2078158;28;20471;-53
2023/01/30 04:39:37;;;;;;;10.00;8.97;;;;;19.10;100382.00;;;;2078644;28;20588;-53
2023/01/30 04:40:37;;;;;;;9.57;8.60;;;;;18.90;100380.00;;;;2078593;28;20228;-53
2023/01/30 04:41:37;;;;;;;9.57;8.67;;;;;19.10;100378.00;;;;2079274;28;20218;-53
2023/01/30 04:42:38;;;;;;;8.97;8.07;;;;;19.10;100381.00;;;;2079356;28;20229;-53
2023/01/30 04:43:38;;;;;;;10.20;9.20;;;;;19.10;100367.00;;;;2079090;28;20237;-53
2023/01/30 04:44:38;;;;;;;9.03;8.10;;;;;19.10;100382.00;;;;2076778;28;20336;-53
2023/01/30 04:45:42;;;;;;;9.53;8.60;;;;;19.10;100378.00;;;;2079171;28;20334;-53
2023/01/30 04:46:42;;;;;;;10.18;9.10;;;;;19.10;100382.00;;;;2079013;28;20303;-53
2023/01/30 04:47:42;;;;;;;9.70;8.73;;;;;19.00;100385.00;;;;2078856;28;20214;-55
2023/01/30 04:48:43;;;;;;;8.33;7.53;;;;;19.10;100375.00;;;;2077927;28;20222;-53
2023/01/30 04:49:43;;;;;;;8.70;7.90;;;;;19.00;100372.00;;;;2079191;28;20232;-55
2023/01/30 04:50:45;;;;;;;9.30;7.70;;;;;19.00;100368.00;;;;2079338;28;20232;-51
2023/01/30 04:51:46;;;;;;;9.27;8.38;;;;;19.00;100374.00;;;;2078475;28;20270;-53
2023/01/30 04:52:46;;;;;;;9.73;8.73;;;;;19.00;100377.00;;;;2079196;28;20267;-54
2023/01/30 04:53:46;;;;;;;8.67;7.80;;;;;19.00;100370.00;;;;2078805;28;20224;-53
2023/01/30 04:54:47;;;;;;;9.03;8.23;;;;;19.00;100384.00;;;;2079140;28;20241;-53
2023/01/30 04:55:47;;;;;;;8.87;8.00;;;;;19.00;100381.00;;;;2078291;28;20233;-52
2023/01/30 04:56:47;;;;;;;8.37;7.57;;;;;19.00;100380.00;;;;2078405;28;20213;-52
2023/01/30 04:57:48;;;;;;;9.37;8.43;;;;;19.00;100367.00;;;;2079199;28;20299;-53
2023/01/30 04:58:48;;;;;;;8.50;7.63;;;;;19.00;100362.00;;;;2078029;28;20221;-53
2023/01/30 04:59:48;;;;;;;7.60;6.90;;;;;19.00;100364.00;;;;2079267;28;20229;-53
2023/01/30 05:00:49;;;;;;;8.13;7.40;;;;;19.00;100376.00;;;;2079180;28;20241;-54
2023/01/30 05:01:49;;;;;;;10.70;7.73;;;;;19.00;100376.00;;;;2079402;28;21145;-52
2023/01/30 05:02:50;;;;;;;7.60;6.90;;;;;19.00;100377.00;;;;2079374;28;20720;-52
2023/01/30 05:03:51;;;;;;;8.23;7.43;;;;;19.00;100377.00;;;;2078285;28;20721;-53
2023/01/30 05:04:52;;;;;;;8.40;7.50;;;;;19.00;100367.00;;;;2078416;28;20464;-53
2023/01/30 05:05:52;;;;;;;8.63;7.83;;;;;19.00;100366.00;;;;2078692;28;20214;-53
2023/01/30 05:06:52;;;;;;;8.20;7.40;;;;;19.00;100366.00;;;;2078979;28;20217;-53
2023/01/30 05:07:53;;;;;;;8.77;7.87;;;;;19.00;100358.00;;;;2078850;28;20266;-53
2023/01/30 05:08:54;;;;;;;8.60;7.80;;;;;19.00;100365.00;;;;2078434;28;20241;-53
2023/01/30 05:09:54;;;;;;;9.07;8.18;;;;;19.00;100363.00;;;;2078901;28;20539;-53
2023/01/30 05:10:56;;;;;;;8.37;7.57;;;;;19.00;100361.00;;;;2078865;28;20308;-52
2023/01/30 05:11:57;;;;;;;7.50;6.80;;;;;19.00;100355.00;;;;2079138;28;20216;-52
2023/01/30 05:13:01;;;;;;;7.73;7.00;;;;;19.00;100372.00;;;;2079107;28;20588;-53
2023/01/30 05:14:01;;;;;;;7.85;7.15;;;;;19.00;100366.00;;;;2079011;28;20217;-53
2023/01/30 05:15:01;;;;;;;7.83;7.03;;;;;19.00;100356.00;;;;2078074;28;20292;-53
2023/01/30 05:16:02;;;;;;;7.63;7.03;;;;;19.00;100363.00;;;;2079030;28;20210;-52